CYLD

Chapleau Airport

Chapleau, Ontario, Canada
METAR CYLD 150000Z 26003KT 250V330 15SM FEW180 24/14 A2985 RMK AC1 SLP113 DENSITY ALT 2900FT
Observed Flight Rules
Aug-15 @ 00:00 UTC (an hour ago) Visual Flight Rules
Wind Visibility Clouds
260° at 3 knots 15 miles
  • Few at 18,000' AGL
Temperatures Readings
Current 24°C / 75°F
Dewpoint 14°C / 57°F
Humidity 54%
Altimeter 29.85" Hg
Pressure 1011.3 hPa
Elevation 447
METAR CYLD 150000Z 26003KT 250V330 15SM FEW180 24/14 A2985 RMK AC1 SLP113 DENSITY ALT 2900FT
Observed Flight Rules
Aug-15 @ 00:00 UTC
(an hour ago)
VFR
Wind Visibility
260° at 3 knots 15 miles
Clouds
  • Few at 18,000' AGL
Temperature Dewpoint
24°C / 75°F 14°C / 57°F
Humidity Altimeter Pressure
54% 29.85" Hg 1011.3 hPa